Time;durP1;ratioP1;P1;durP2;ratioP2;P2;SDS_P1;SDS_P2;PMS_P1;PMS_P2;Temp;Humidity;BMP_temperature;BMP_pressure;BME280_temperature;BME280_humidity;BME280_pressure;Samples;Min_cycle;Max_cycle;Signal;HPM_P1;HPM_P2
2021/11/07 00:05:03;;;;;;;44.83;24.48;;;;;;;5.78;100.00;101170.50;5005729;28;20061;-54
2021/11/07 00:10:14;;;;;;;47.38;24.67;;;;;;;5.74;100.00;101158.28;5007650;28;20633;-53
2021/11/07 00:12:43;;;;;;;43.72;24.80;;;;;;;5.73;100.00;101151.28;5006456;28;20239;-53
2021/11/07 00:15:13;;;;;;;43.55;24.15;;;;;;;5.71;100.00;101131.19;4985712;28;20042;-51
2021/11/07 00:17:45;;;;;;;45.50;26.13;;;;;;;5.69;100.00;101122.44;4997017;28;20049;-54
2021/11/07 00:20:20;;;;;;;47.58;25.23;;;;;;;5.66;100.00;101122.53;5006180;28;20058;-52
2021/11/07 00:22:55;;;;;;;45.55;26.35;;;;;;;5.71;100.00;101115.41;5000854;28;20054;-52
2021/11/07 00:27:55;;;;;;;43.42;24.67;;;;;;;5.73;100.00;101114.50;4997995;28;20490;-52
2021/11/07 00:36:05;;;;;;;42.58;23.48;;;;;;;5.80;100.00;101105.66;5000438;28;20352;-53
2021/11/07 00:41:19;;;;;;;43.08;22.90;;;;;;;5.86;100.00;101089.75;5002199;28;20514;-52
2021/11/07 00:44:08;;;;;;;39.50;22.45;;;;;;;5.85;100.00;101100.28;5007344;28;20045;-53
2021/11/07 00:49:11;;;;;;;41.40;23.38;;;;;;;5.84;100.00;101096.78;5007669;28;20137;-52
2021/11/07 00:54:31;;;;;;;42.38;22.40;;;;;;;5.85;100.00;101082.75;5009873;28;20125;-53
2021/11/07 00:57:03;;;;;;;38.03;22.02;;;;;;;5.82;100.00;101077.59;4994491;28;20039;-54
2021/11/07 00:59:46;;;;;;;40.50;22.42;;;;;;;5.80;100.00;101073.22;5008577;28;20042;-52
2021/11/07 01:02:20;;;;;;;39.35;22.33;;;;;;;5.78;100.00;101070.63;5009529;28;20042;-53
2021/11/07 01:04:48;;;;;;;40.42;23.02;;;;;;;5.73;100.00;101061.94;4992182;28;20111;-52
2021/11/07 01:07:16;;;;;;;36.15;21.98;;;;;;;5.76;100.00;101061.91;4998236;28;20046;-53
2021/11/07 01:09:43;;;;;;;38.45;21.27;;;;;;;5.81;100.00;101067.97;5005276;28;20499;-53
2021/11/07 01:12:11;;;;;;;41.47;22.38;;;;;;;5.65;100.00;101042.81;5010005;28;20042;-51
2021/11/07 01:14:37;;;;;;;37.67;21.23;;;;;;;5.58;99.89;101038.56;5006522;28;20053;-52
2021/11/07 01:17:04;;;;;;;39.55;22.05;;;;;;;5.69;100.00;101059.38;4996370;28;20042;-52
2021/11/07 01:19:31;;;;;;;38.78;21.58;;;;;;;5.73;100.00;101055.81;5012601;28;20052;-54
2021/11/07 01:22:01;;;;;;;41.83;21.58;;;;;;;5.71;100.00;101057.59;5003873;28;20522;-54
2021/11/07 01:24:33;;;;;;;39.58;21.67;;;;;;;5.70;100.00;101051.47;5009048;28;20529;-54
2021/11/07 01:29:41;;;;;;;39.88;22.58;;;;;;;5.60;100.00;101058.66;5009077;28;20046;-52
2021/11/07 01:32:08;;;;;;;41.45;21.63;;;;;;;5.60;100.00;101063.03;5006311;28;20064;-53
2021/11/07 01:34:55;;;;;;;45.20;23.73;;;;;;;5.61;100.00;101055.13;4990787;28;20042;-52
2021/11/07 01:37:26;;;;;;;41.35;23.30;;;;;;;5.68;99.91;101049.75;4996036;28;20057;-53
2021/11/07 01:42:33;;;;;;;40.28;22.85;;;;;;;5.70;100.00;101046.22;5008679;28;20558;-54
2021/11/07 01:45:06;;;;;;;43.10;23.35;;;;;;;5.68;99.83;101042.75;5002923;28;20050;-52
2021/11/07 01:47:38;;;;;;;43.75;23.65;;;;;;;5.54;100.00;101035.09;5000910;28;20046;-52
2021/11/07 01:50:06;;;;;;;42.83;24.85;;;;;;;5.69;100.00;101060.25;5006399;28;20519;-53
2021/11/07 01:52:38;;;;;;;44.85;23.58;;;;;;;5.67;99.65;101076.97;5008822;28;20052;-53
2021/11/07 01:55:05;;;;;;;41.88;24.10;;;;;;;5.73;100.00;101067.19;5011097;28;20515;-52
2021/11/07 01:57:33;;;;;;;46.72;24.13;;;;;;;5.75;100.00;101069.81;4999831;28;20038;-54
2021/11/07 02:00:17;;;;;;;40.80;22.52;;;;;;;5.79;99.13;101067.09;5007869;28;20056;-53
2021/11/07 02:02:43;;;;;;;39.97;21.70;;;;;;;5.73;99.11;101046.19;5026937;28;20046;-56
2021/11/07 02:05:10;;;;;;;39.80;23.33;;;;;;;5.72;98.96;101041.81;5027883;28;20049;-53
2021/11/07 02:07:37;;;;;;;41.50;21.65;;;;;;;5.72;98.61;101043.56;5016388;28;20491;-54
2021/11/07 02:10:06;;;;;;;41.30;22.35;;;;;;;5.66;99.05;101039.31;5027792;28;20487;-52
2021/11/07 02:12:33;;;;;;;38.27;21.63;;;;;;;5.67;99.47;101035.75;5031179;28;20042;-52
2021/11/07 02:15:00;;;;;;;38.50;21.48;;;;;;;5.65;99.37;101032.31;5028850;28;20052;-52
2021/11/07 02:17:26;;;;;;;34.85;21.27;;;;;;;5.50;99.52;101004.53;5017290;28;20127;-54
2021/11/07 02:19:53;;;;;;;35.70;20.25;;;;;;;5.54;99.98;101024.59;5027868;28;20075;-53
2021/11/07 02:22:20;;;;;;;33.88;20.17;;;;;;;5.54;99.71;101040.34;5008984;28;20060;-53
2021/11/07 02:24:47;;;;;;;36.30;21.67;;;;;;;5.55;99.89;101038.59;5029706;28;20041;-53
2021/11/07 02:27:14;;;;;;;34.17;20.23;;;;;;;5.53;100.00;101038.63;5021409;28;20061;-52
2021/11/07 02:29:41;;;;;;;38.35;20.63;;;;;;;5.56;99.66;101024.56;5015820;28;20525;-53
2021/11/07 02:32:08;;;;;;;39.38;20.73;;;;;;;5.56;99.77;101016.69;5028556;28;20477;-54
2021/11/07 02:34:34;;;;;;;34.83;20.40;;;;;;;5.57;99.52;101006.16;5026315;28;20049;-53
2021/11/07 02:37:01;;;;;;;33.72;20.23;;;;;;;5.59;99.24;100988.59;5017771;28;20503;-52
2021/11/07 02:39:28;;;;;;;34.13;20.13;;;;;;;5.61;99.25;100988.59;5019336;28;20064;-52
2021/11/07 02:41:58;;;;;;;34.30;19.80;;;;;;;5.63;98.72;100977.16;5024928;28;20060;-52
2021/11/07 02:44:39;;;;;;;32.20;20.17;;;;;;;5.58;98.57;100968.47;5027798;28;20045;-53
2021/11/07 02:47:09;;;;;;;32.47;20.30;;;;;;;5.62;98.30;100962.28;5021052;28;20045;-53
2021/11/07 02:49:36;;;;;;;33.80;20.00;;;;;;;5.61;98.62;100959.69;5018924;28;20041;-53
2021/11/07 02:52:05;;;;;;;35.95;20.77;;;;;;;5.60;98.93;100947.44;5027363;28;20041;-52
2021/11/07 02:54:33;;;;;;;37.63;19.55;;;;;;;5.62;98.51;100969.31;5027735;28;20459;-53
2021/11/07 02:57:03;;;;;;;34.10;20.33;;;;;;;5.65;97.97;100971.88;5014717;28;20064;-52
2021/11/07 02:59:32;;;;;;;33.35;20.50;;;;;;;5.65;97.82;100961.38;5023437;28;20056;-53
2021/11/07 03:02:02;;;;;;;28.08;18.88;;;;;;;5.59;97.86;100964.09;5011188;28;20412;-53
2021/11/07 03:04:29;;;;;;;33.65;19.50;;;;;;;5.53;97.83;100945.81;5009050;28;20054;-52
2021/11/07 03:06:56;;;;;;;32.60;19.80;;;;;;;5.49;98.76;100946.78;4995154;28;20523;-53
2021/11/07 03:09:28;;;;;;;35.85;21.23;;;;;;;5.53;98.23;100951.94;5003167;28;20490;-52
2021/11/07 03:11:58;;;;;;;33.25;19.80;;;;;;;5.53;98.33;100943.19;5007151;28;20042;-52
2021/11/07 03:14:28;;;;;;;36.20;20.08;;;;;;;5.45;98.69;100931.94;5010020;28;20491;-52
2021/11/07 03:16:55;;;;;;;36.15;21.08;;;;;;;5.42;98.54;100946.00;5001089;28;20865;-53
2021/11/07 03:19:24;;;;;;;39.67;21.73;;;;;;;5.39;98.79;100932.91;5001678;28;20153;-51
2021/11/07 03:21:56;;;;;;;35.47;21.08;;;;;;;5.41;98.75;100938.13;5004276;28;20040;-53
2021/11/07 03:24:23;;;;;;;36.58;21.05;;;;;;;5.36;98.89;100927.72;5007583;28;20052;-54
2021/11/07 03:26:50;;;;;;;37.67;22.58;;;;;;;5.41;99.15;100919.75;5001646;28;20045;-52
2021/11/07 03:29:17;;;;;;;40.33;23.38;;;;;;;5.31;99.25;100920.81;5000079;28;20441;-52
2021/11/07 03:32:01;;;;;;;38.30;22.73;;;;;;;5.32;99.62;100909.44;5007038;28;20038;-53
2021/11/07 03:34:33;;;;;;;40.55;23.13;;;;;;;5.31;99.59;100915.56;5006041;28;20054;-51
2021/11/07 03:37:04;;;;;;;37.53;22.40;;;;;;;5.32;99.27;100901.56;4999986;28;20528;-54
2021/11/07 03:39:35;;;;;;;38.92;23.10;;;;;;;5.32;99.54;100909.44;5003322;28;20490;-53
2021/11/07 03:42:07;;;;;;;40.58;24.20;;;;;;;5.18;99.84;100880.78;5006267;28;20053;-51
2021/11/07 03:44:34;;;;;;;42.15;24.20;;;;;;;5.33;99.60;100908.53;5008869;28;20052;-53
2021/11/07 03:47:02;;;;;;;43.00;24.08;;;;;;;5.34;99.69;100903.25;4997732;28;20050;-51
2021/11/07 03:49:29;;;;;;;40.30;22.88;;;;;;;5.35;99.05;100898.88;5003203;28;20054;-52
2021/11/07 03:51:55;;;;;;;39.17;22.05;;;;;;;5.41;98.93;100904.00;5006820;28;20526;-52
2021/11/07 03:54:23;;;;;;;36.53;22.42;;;;;;;5.39;98.45;100903.16;5007647;28;20041;-52
2021/11/07 03:56:50;;;;;;;40.97;23.70;;;;;;;5.34;98.96;100895.38;5001436;28;20050;-53
2021/11/07 03:59:16;;;;;;;37.40;22.95;;;;;;;5.25;99.18;100885.03;4999021;28;20077;-53
2021/11/07 04:01:43;;;;;;;39.95;22.52;;;;;;;5.31;98.73;100889.31;5010242;28;20056;-53
2021/11/07 04:04:09;;;;;;;36.35;21.92;;;;;;;5.34;98.89;100897.13;5007146;28;20139;-52
2021/11/07 04:06:36;;;;;;;37.38;21.85;;;;;;;5.42;98.54;100882.97;4999478;28;20068;-54
2021/11/07 04:09:09;;;;;;;36.85;21.42;;;;;;;5.45;97.82;100879.41;4995679;28;20822;-52
2021/11/07 04:11:36;;;;;;;34.60;20.00;;;;;;;5.46;97.83;100883.78;5004259;28;20435;-52
2021/11/07 04:14:09;;;;;;;36.00;20.80;;;;;;;5.47;98.26;100886.38;5008076;28;20056;-52
2021/11/07 04:16:37;;;;;;;35.35;20.83;;;;;;;5.47;97.69;100880.25;5008093;28;20041;-53
2021/11/07 04:19:05;;;;;;;33.22;21.25;;;;;;;5.50;97.45;100891.59;4997687;28;20471;-52
2021/11/07 04:21:32;;;;;;;35.90;20.70;;;;;;;5.45;97.15;100888.16;5004078;28;20128;-51
2021/11/07 04:23:58;;;;;;;33.20;19.35;;;;;;;5.56;96.65;100874.81;5006059;28;20050;-54
2021/11/07 04:26:25;;;;;;;34.72;20.55;;;;;;;5.51;96.58;100867.03;5007189;28;20046;-55
2021/11/07 04:28:51;;;;;;;35.78;20.85;;;;;;;5.51;96.58;100858.31;4993850;28;20574;-51
2021/11/07 04:31:18;;;;;;;38.33;20.67;;;;;;;5.46;97.14;100854.88;5005550;28;20044;-53
2021/11/07 04:33:44;;;;;;;31.92;19.25;;;;;;;5.44;97.64;100856.69;5005244;28;20042;-54
2021/11/07 04:36:11;;;;;;;32.30;19.65;;;;;;;5.42;98.39;100846.19;5000215;28;20045;-53
2021/11/07 04:38:38;;;;;;;34.03;20.67;;;;;;;5.41;98.54;100840.97;4993993;28;20046;-52
2021/11/07 04:41:06;;;;;;;32.58;20.10;;;;;;;5.38;98.27;100839.25;5007331;28;20046;-52
2021/11/07 04:43:33;;;;;;;32.28;19.52;;;;;;;5.33;99.02;100829.75;5003998;28;20052;-53
2021/11/07 04:46:00;;;;;;;32.45;19.15;;;;;;;5.33;98.63;100825.38;5003834;28;20049;-52
2021/11/07 04:48:27;;;;;;;33.78;19.73;;;;;;;5.31;99.07;100821.91;4995535;28;20054;-58
2021/11/07 04:50:54;;;;;;;32.08;18.67;;;;;;;5.25;99.48;100812.38;5005043;28;20056;-53
2021/11/07 04:53:21;;;;;;;34.70;19.52;;;;;;;5.12;100.00;100800.38;5005766;28;20052;-52
2021/11/07 04:55:49;;;;;;;31.98;18.73;;;;;;;5.25;100.00;100822.00;5005093;28;20045;-53
2021/11/07 04:58:16;;;;;;;35.00;19.75;;;;;;;5.24;100.00;100807.16;4993685;28;20045;-53
2021/11/07 05:00:43;;;;;;;34.53;19.60;;;;;;;5.27;99.93;100800.09;5004722;28;20045;-52
2021/11/07 05:03:10;;;;;;;31.13;19.48;;;;;;;5.31;100.00;100790.41;5005827;28;20139;-52
2021/11/07 05:05:38;;;;;;;31.77;18.10;;;;;;;5.36;99.35;100792.91;5006263;28;20045;-52
2021/11/07 05:08:06;;;;;;;32.40;18.58;;;;;;;5.38;99.29;100789.38;4997204;28;21626;-52
2021/11/07 05:10:33;;;;;;;32.72;17.83;;;;;;;5.38;99.44;100783.25;5005690;28;20044;-53
2021/11/07 05:12:59;;;;;;;30.92;17.52;;;;;;;5.42;99.40;100777.03;5003304;28;20436;-53
2021/11/07 05:15:26;;;;;;;29.73;17.92;;;;;;;5.40;99.49;100771.81;5005774;28;20154;-53
2021/11/07 05:17:57;;;;;;;31.73;17.98;;;;;;;5.32;99.52;100757.13;4997104;28;20048;-52
2021/11/07 05:20:24;;;;;;;29.25;18.08;;;;;;;5.50;98.55;100772.53;5002105;28;20078;-53
2021/11/07 05:22:51;;;;;;;30.23;17.83;;;;;;;5.50;98.80;100778.63;5005720;28;20342;-53
2021/11/07 05:25:17;;;;;;;27.65;17.77;;;;;;;5.49;99.39;100773.41;5007600;28;20097;-53
2021/11/07 05:27:44;;;;;;;28.27;17.15;;;;;;;5.51;99.24;100771.63;4993620;28;20038;-53
2021/11/07 05:30:13;;;;;;;31.67;17.92;;;;;;;5.51;99.56;100774.25;5000478;28;20246;-51
2021/11/07 05:32:41;;;;;;;29.00;17.88;;;;;;;5.50;99.68;100769.91;5005154;28;20446;-52
2021/11/07 05:35:08;;;;;;;28.52;17.73;;;;;;;5.54;99.31;100768.91;5001050;28;20058;-53
2021/11/07 05:37:35;;;;;;;30.17;17.50;;;;;;;5.54;98.91;100761.03;5001052;28;20042;-53
2021/11/07 05:40:07;;;;;;;30.17;17.60;;;;;;;5.49;99.15;100755.91;5001304;28;20050;-53
2021/11/07 05:42:34;;;;;;;29.73;16.92;;;;;;;5.49;99.92;100752.41;5008802;28;20053;-52
2021/11/07 05:45:01;;;;;;;32.25;17.77;;;;;;;5.58;98.88;100752.19;5008302;28;20431;-52
2021/11/07 05:47:27;;;;;;;27.83;16.95;;;;;;;5.57;98.80;100745.22;5004427;28;20054;-53
2021/11/07 05:49:54;;;;;;;28.67;17.13;;;;;;;5.54;98.98;100755.78;4999325;28;20050;-53
2021/11/07 05:52:21;;;;;;;31.95;18.50;;;;;;;5.58;99.14;100754.81;5009159;28;20038;-52
2021/11/07 05:54:47;;;;;;;28.48;17.60;;;;;;;5.60;99.77;100734.66;5009037;28;20050;-52
2021/11/07 05:57:14;;;;;;;31.77;18.15;;;;;;;5.60;99.70;100718.88;5006825;28;20053;-50
2021/11/07 05:59:40;;;;;;;31.20;18.63;;;;;;;5.63;99.72;100724.06;4999639;28;20045;-52
2021/11/07 06:02:07;;;;;;;33.95;17.80;;;;;;;5.67;99.03;100722.25;5012740;28;20046;-53
2021/11/07 06:04:34;;;;;;;33.72;18.88;;;;;;;5.66;99.26;100720.53;5008230;28;20120;-51
2021/11/07 06:07:01;;;;;;;36.50;18.65;;;;;;;5.55;99.69;100687.44;5009754;28;20085;-52
2021/11/07 06:09:27;;;;;;;37.10;18.15;;;;;;;5.64;99.70;100707.41;4996608;28;20049;-52
2021/11/07 06:11:54;;;;;;;33.47;18.50;;;;;;;5.67;99.57;100704.69;5008584;28;20037;-52
2021/11/07 06:14:20;;;;;;;29.63;17.75;;;;;;;5.69;100.00;100702.03;5006760;28;20042;-52
2021/11/07 06:16:47;;;;;;;32.53;18.38;;;;;;;5.71;99.56;100722.13;5010586;28;20483;-52
2021/11/07 06:19:14;;;;;;;33.97;18.05;;;;;;;5.72;99.83;100725.63;4995703;28;20045;-54
2021/11/07 06:21:41;;;;;;;34.83;17.83;;;;;;;5.69;99.53;100723.91;5004435;28;20487;-52
2021/11/07 06:24:11;;;;;;;33.03;18.13;;;;;;;5.67;99.62;100720.47;5008255;28;20092;-59
2021/11/07 06:26:39;;;;;;;31.65;17.63;;;;;;;5.70;100.00;100727.41;5003840;28;20499;-53
2021/11/07 06:29:05;;;;;;;35.40;18.48;;;;;;;5.70;99.75;100725.66;4996575;28;20759;-52
2021/11/07 06:31:32;;;;;;;30.42;18.23;;;;;;;5.72;99.98;100701.97;5009646;28;20038;-53
2021/11/07 06:33:58;;;;;;;30.38;17.63;;;;;;;5.74;99.73;100701.06;5008027;28;20466;-52
2021/11/07 06:36:25;;;;;;;32.53;17.33;;;;;;;5.77;100.00;100706.25;5003388;28;20056;-52
2021/11/07 06:38:52;;;;;;;30.33;18.33;;;;;;;5.74;100.00;100694.94;4997144;28;20940;-52
2021/11/07 06:41:18;;;;;;;29.73;17.10;;;;;;;5.74;100.00;100703.69;5008747;28;20365;-55
2021/11/07 06:43:45;;;;;;;33.13;18.90;;;;;;;5.74;100.00;100706.31;5007671;28;20050;-53
2021/11/07 06:46:11;;;;;;;32.08;17.95;;;;;;;5.78;100.00;100718.47;5004606;28;20049;-57
2021/11/07 06:48:38;;;;;;;32.22;17.90;;;;;;;5.85;99.86;100704.28;4998923;28;20047;-51
2021/11/07 06:51:04;;;;;;;32.70;18.00;;;;;;;5.94;99.70;100709.38;5004892;28;20038;-53
2021/11/07 06:53:31;;;;;;;28.70;16.92;;;;;;;5.94;99.48;100709.38;5008793;28;20050;-52
2021/11/07 06:55:58;;;;;;;29.05;17.48;;;;;;;6.01;98.90;100701.34;5010437;28;20058;-54
2021/11/07 06:58:24;;;;;;;25.13;15.38;;;;;;;6.07;98.35;100704.69;4996938;28;20050;-53
2021/11/07 07:00:51;;;;;;;29.33;16.40;;;;;;;6.06;97.68;100704.75;5002380;28;20053;-53
2021/11/07 07:03:18;;;;;;;25.05;15.50;;;;;;;6.11;97.65;100702.88;5008516;28;20045;-51
2021/11/07 07:05:44;;;;;;;25.20;16.08;;;;;;;6.11;97.67;100719.50;5002931;28;20503;-54
2021/11/07 07:08:16;;;;;;;31.88;16.83;;;;;;;6.11;98.15;100692.34;5001122;28;20046;-54
2021/11/07 07:10:54;;;;;;;27.60;15.13;;;;;;;6.11;97.89;100690.59;5004408;28;20045;-53
2021/11/07 07:13:26;;;;;;;27.88;15.05;;;;;;;6.11;98.19;100693.22;5006043;28;20042;-51
2021/11/07 07:16:09;;;;;;;27.83;15.30;;;;;;;6.17;97.46;100684.31;5003669;28;20046;-52
2021/11/07 07:18:48;;;;;;;28.23;15.50;;;;;;;6.16;96.55;100667.66;4998832;28;20049;-52
2021/11/07 07:29:27;;;;;;;22.15;13.93;;;;;;;6.28;95.94;100682.28;4995453;28;20042;-52
2021/11/07 07:32:00;;;;;;;24.85;15.55;;;;;;;6.31;95.82;100697.97;5006420;28;20042;-52
2021/11/07 07:34:27;;;;;;;24.70;14.65;;;;;;;6.27;96.04;100702.47;5006766;28;20056;-52
2021/11/07 07:36:55;;;;;;;24.88;15.35;;;;;;;6.29;96.17;100694.53;5006939;28;20054;-51
2021/11/07 07:39:22;;;;;;;24.77;14.63;;;;;;;6.31;95.75;100688.31;4998040;28;20046;-53
2021/11/07 07:41:49;;;;;;;25.50;14.82;;;;;;;6.38;95.71;100689.03;5005984;28;20049;-53
2021/11/07 07:44:16;;;;;;;28.27;15.98;;;;;;;6.37;95.46;100703.09;5005504;28;20491;-52
2021/11/07 07:46:44;;;;;;;23.38;14.93;;;;;;;6.40;96.09;100703.03;5006126;28;20090;-53
2021/11/07 07:49:14;;;;;;;26.30;15.18;;;;;;;6.36;96.39;100696.09;4994545;28;20054;-52
2021/11/07 07:51:40;;;;;;;27.20;15.60;;;;;;;6.36;96.70;100700.50;5007398;28;20046;-54
2021/11/07 07:54:07;;;;;;;28.40;16.25;;;;;;;6.34;97.20;100708.44;5007429;28;20053;-52
2021/11/07 07:56:35;;;;;;;27.90;15.23;;;;;;;6.19;98.17;100683.38;5005627;28;20045;-52
2021/11/07 07:59:04;;;;;;;25.58;15.18;;;;;;;6.30;98.87;100697.09;4991475;28;20046;-52
2021/11/07 08:01:32;;;;;;;25.70;15.48;;;;;;;6.27;98.98;100704.25;5005115;28;20322;-52
2021/11/07 08:03:58;;;;;;;25.77;15.38;;;;;;;6.26;100.00;100705.13;5005755;28;20053;-53
2021/11/07 08:06:25;;;;;;;28.23;16.75;;;;;;;6.23;100.00;100713.09;5002223;28;20046;-53
2021/11/07 08:08:52;;;;;;;28.67;16.63;;;;;;;6.16;100.00;100703.59;4996412;28;20042;-54
2021/11/07 08:11:18;;;;;;;30.40;16.95;;;;;;;6.17;100.00;100690.44;5004729;28;20064;-52
2021/11/07 08:13:50;;;;;;;30.67;16.65;;;;;;;6.19;100.00;100695.66;5006282;28;20096;-53
2021/11/07 08:16:18;;;;;;;26.70;16.25;;;;;;;6.17;100.00;100687.78;5006163;28;20045;-51
2021/11/07 08:18:45;;;;;;;31.70;18.00;;;;;;;6.19;100.00;100693.88;4993607;28;20050;-51
2021/11/07 08:21:12;;;;;;;30.98;17.13;;;;;;;6.18;100.00;100707.06;5000697;28;20048;-52
2021/11/07 08:23:38;;;;;;;32.92;18.25;;;;;;;6.11;100.00;100695.00;5006450;28;20488;-54
2021/11/07 08:26:05;;;;;;;31.23;18.35;;;;;;;6.08;100.00;100682.78;5005335;28;20499;-52
2021/11/07 08:28:32;;;;;;;31.40;19.50;;;;;;;5.99;100.00;100681.22;5003490;28;20295;-52
2021/11/07 08:31:17;;;;;;;32.35;17.98;;;;;;;5.99;100.00;100686.47;4999247;28;20060;-52
2021/11/07 08:33:44;;;;;;;30.17;17.02;;;;;;;6.06;100.00;100691.59;5005692;28;20483;-51
2021/11/07 08:36:15;;;;;;;35.95;18.48;;;;;;;6.06;100.00;100684.56;5003589;28;20062;-52
2021/11/07 08:38:47;;;;;;;33.28;18.35;;;;;;;6.05;100.00;100679.34;5000956;28;20499;-52
2021/11/07 08:41:17;;;;;;;32.65;19.00;;;;;;;6.08;100.00;100663.50;5002592;28;20439;-52
2021/11/07 09:00:29;;;;;;;29.58;17.40;;;;;;;6.24;100.00;100686.75;4994423;28;20053;-51
2021/11/07 09:03:14;;;;;;;33.00;17.60;;;;;;;6.28;100.00;100688.41;5014239;28;20096;-53
2021/11/07 09:06:12;;;;;;;28.75;16.20;;;;;;;6.37;100.00;100696.97;5018277;28;20056;-53
2021/11/07 09:08:40;;;;;;;26.67;15.82;;;;;;;6.38;100.00;100688.19;5014838;28;20042;-53
2021/11/07 09:11:10;;;;;;;27.83;16.05;;;;;;;6.38;100.00;100689.03;5015627;28;20053;-52
2021/11/07 09:13:36;;;;;;;28.00;16.63;;;;;;;6.41;100.00;100685.47;5025812;28;20045;-51
2021/11/07 09:16:03;;;;;;;24.70;15.77;;;;;;;6.45;100.00;100682.75;5028265;28;20054;-54
2021/11/07 09:18:31;;;;;;;24.70;15.00;;;;;;;6.48;100.00;100682.63;5027287;28;20043;-53
2021/11/07 09:26:26;;;;;;;21.77;13.98;;;;;;;6.54;100.00;100686.88;5030652;28;20135;-53
2021/11/07 09:36:44;;;;;;;22.08;13.73;;;;;;;6.78;100.00;100670.44;5028258;28;20470;-53
2021/11/07 09:39:20;;;;;;;18.92;12.63;;;;;;;6.84;100.00;100666.78;5021064;28;20052;-53
2021/11/07 09:42:01;;;;;;;19.55;12.40;;;;;;;6.89;100.00;100652.59;5026450;28;20078;-53
2021/11/07 09:44:35;;;;;;;19.45;11.85;;;;;;;7.02;100.00;100651.34;5025624;28;20053;-51
2021/11/07 09:47:09;;;;;;;19.77;12.07;;;;;;;7.14;99.03;100646.63;5030356;28;20041;-52
2021/11/07 09:49:46;;;;;;;20.38;12.10;;;;;;;7.16;99.68;100648.31;5017314;28;20045;-54
2021/11/07 09:52:20;;;;;;;17.42;11.60;;;;;;;7.20;98.66;100635.94;5035145;28;20421;-53
2021/11/07 09:54:54;;;;;;;16.23;10.45;;;;;;;7.22;98.46;100632.34;5029535;28;20080;-54
2021/11/07 09:57:23;;;;;;;14.20;10.65;;;;;;;7.24;98.12;100641.03;5027734;28;20060;-52
2021/11/07 09:59:56;;;;;;;16.88;11.43;;;;;;;7.29;97.84;100643.53;5015551;28;20080;-52
2021/11/07 10:02:25;;;;;;;17.23;11.57;;;;;;;7.30;98.14;100646.13;5011878;28;20053;-54
2021/11/07 10:04:53;;;;;;;18.02;11.80;;;;;;;7.33;98.30;100640.78;5005484;28;20046;-52
2021/11/07 10:07:27;;;;;;;18.65;12.27;;;;;;;7.35;98.09;100648.66;5010515;28;20475;-51
2021/11/07 10:10:03;;;;;;;21.17;12.95;;;;;;;7.35;98.88;100638.09;4999684;28;20060;-51
2021/11/07 10:12:52;;;;;;;18.15;11.90;;;;;;;7.40;98.72;100652.84;5013235;28;20053;-51
2021/11/07 10:15:39;;;;;;;17.75;11.48;;;;;;;7.45;97.35;100654.50;5013544;28;20045;-52
2021/11/07 10:18:08;;;;;;;17.48;10.98;;;;;;;7.40;97.09;100657.25;5010026;28;20044;-52
2021/11/07 10:20:42;;;;;;;17.88;10.82;;;;;;;7.38;97.22;100659.09;4995550;28;20053;-53
2021/11/07 10:23:17;;;;;;;17.33;11.90;;;;;;;7.44;98.93;100647.50;5012542;28;20069;-55
2021/11/07 10:25:50;;;;;;;14.52;9.65;;;;;;;7.49;96.93;100642.97;5010962;28;20060;-51
2021/11/07 10:28:27;;;;;;;13.15;9.07;;;;;;;7.53;96.68;100644.59;5002846;28;20046;-52
2021/11/07 10:31:15;;;;;;;13.48;10.20;;;;;;;7.54;96.41;100643.69;4998245;28;20046;-51
2021/11/07 10:47:32;;;;;;;7.80;6.03;;;;;;;7.79;92.82;100657.81;5011028;28;20049;-53
2021/11/07 10:53:03;;;;;;;5.85;5.15;;;;;;;7.92;91.55;100647.75;5008486;28;20479;-52
2021/11/07 10:55:33;;;;;;;5.75;4.43;;;;;;;7.94;91.24;100648.56;5013923;28;20038;-54
2021/11/07 10:58:03;;;;;;;5.13;4.10;;;;;;;7.95;90.62;100645.03;5010769;28;20062;-53
2021/11/07 11:00:43;;;;;;;4.63;4.00;;;;;;;7.94;90.83;100635.38;4999969;28;20056;-55
2021/11/07 11:03:18;;;;;;;5.68;3.92;;;;;;;7.94;90.93;100628.34;5007346;28;20045;-52
2021/11/07 11:06:08;;;;;;;5.90;4.22;;;;;;;7.98;91.07;100622.06;5005499;28;20046;-52
2021/11/07 11:08:43;;;;;;;4.30;3.90;;;;;;;8.00;90.85;100622.88;5006913;28;20046;-52
2021/11/07 11:14:13;;;;;;;4.10;3.70;;;;;;;8.22;89.46;100603.66;5003740;28;20131;-52
2021/11/07 11:19:55;;;;;;;3.92;3.33;;;;;;;8.32;88.70;100599.84;5001910;28;20053;-52
2021/11/07 11:27:58;;;;;;;3.33;2.85;;;;;;;8.55;87.37;100602.53;5007337;28;20037;-52
2021/11/07 11:33:01;;;;;;;4.25;2.83;;;;;;;8.49;88.00;100600.13;5010296;28;20041;-52
2021/11/07 11:35:37;;;;;;;3.60;3.20;;;;;;;8.49;88.22;100602.78;5004592;28;20053;-53
2021/11/07 11:38:14;;;;;;;3.38;3.05;;;;;;;8.54;88.29;100600.81;5001547;28;20046;-54
2021/11/07 11:43:18;;;;;;;4.15;3.17;;;;;;;8.49;88.53;100597.50;5009271;28;20514;-53
2021/11/07 11:45:52;;;;;;;3.78;2.60;;;;;;;8.55;88.14;100594.63;5001547;28;20067;-52
2021/11/07 11:57:10;;;;;;;4.00;2.75;;;;;;;8.65;87.85;100569.63;5001223;28;20364;-51
2021/11/07 11:59:47;;;;;;;3.72;2.90;;;;;;;8.56;87.15;100547.97;4998990;28;20555;-51
2021/11/07 12:05:24;;;;;;;3.95;3.00;;;;;;;8.78;86.78;100557.72;5004484;28;20502;-52
2021/11/07 12:08:14;;;;;;;5.15;3.10;;;;;;;8.85;86.86;100570.66;5007765;28;20045;-52
2021/11/07 12:14:15;;;;;;;4.70;3.13;;;;;;;8.98;86.04;100556.06;5004937;28;20050;-55
2021/11/07 12:16:45;;;;;;;4.60;3.08;;;;;;;9.01;86.21;100561.25;5003757;28;20436;-53
2021/11/07 12:19:12;;;;;;;;;;;;;;;9.00;86.37;100543.69;5007055;28;20045;-51
2021/11/07 12:21:50;;;;;;;4.15;3.05;;;;;;;9.04;86.47;100548.78;4996571;28;20270;-52
2021/11/07 12:24:46;;;;;;;4.65;3.40;;;;;;;9.06;86.51;100546.97;5004509;28;20092;-53
2021/11/07 12:27:22;;;;;;;4.55;3.55;;;;;;;9.02;86.93;100549.75;4999716;28;20054;-54
2021/11/07 12:30:11;;;;;;;4.20;3.58;;;;;;;8.93;86.40;100542.22;5000395;28;20138;-53
2021/11/07 12:32:40;;;;;;;4.00;3.10;;;;;;;8.89;87.23;100549.38;4998700;28;20054;-51
2021/11/07 12:35:14;;;;;;;5.00;3.85;;;;;;;8.82;87.78;100547.88;5006695;28;20062;-52
2021/11/07 12:40:40;;;;;;;3.92;3.50;;;;;;;8.76;88.29;100554.25;4991626;28;20046;-52
2021/11/07 12:43:17;;;;;;;5.38;4.20;;;;;;;8.77;88.36;100545.41;5002317;28;20505;-52
2021/11/07 12:45:47;;;;;;;4.22;3.40;;;;;;;8.78;88.58;100539.22;5001871;28;20149;-52
2021/11/07 12:48:35;;;;;;;5.25;4.40;;;;;;;8.90;88.12;100542.31;5004762;28;20141;-51
2021/11/07 12:51:05;;;;;;;4.85;3.50;;;;;;;8.99;87.90;100531.38;4994297;28;20057;-53
2021/11/07 12:53:54;;;;;;;4.38;3.88;;;;;;;9.11;87.71;100552.06;5005896;28;20141;-52
2021/11/07 12:56:55;;;;;;;5.53;3.72;;;;;;;9.15;87.18;100543.09;5005169;28;20050;-52
2021/11/07 12:59:31;;;;;;;4.35;3.95;;;;;;;9.17;87.71;100545.66;4986141;28;20100;-51
2021/11/07 13:02:10;;;;;;;4.55;3.78;;;;;;;9.13;87.58;100535.22;4994473;28;20052;-52
2021/11/07 13:04:46;;;;;;;4.07;3.67;;;;;;;9.14;87.37;100551.94;5003470;28;20583;-53
2021/11/07 13:07:33;;;;;;;4.13;3.55;;;;;;;9.14;87.00;100542.22;5004856;28;20046;-55
2021/11/07 13:10:06;;;;;;;3.70;3.30;;;;;;;9.14;87.08;100547.50;4996138;28;20095;-52
2021/11/07 13:12:40;;;;;;;4.07;3.42;;;;;;;9.10;87.44;100548.56;4997230;28;20498;-52
2021/11/07 13:23:57;;;;;;;3.78;3.10;;;;;;;9.33;86.23;100537.09;5005446;28;20494;-53
2021/11/07 13:29:37;;;;;;;9.50;5.35;;;;;;;9.41;84.82;100524.44;4999573;28;20085;-52
2021/11/07 13:32:32;;;;;;;8.27;5.13;;;;;;;9.46;85.09;100529.53;4995290;28;20132;-52
2021/11/07 13:35:03;;;;;;;6.22;3.95;;;;;;;9.34;85.57;100498.31;4995520;28;20042;-50
2021/11/07 13:37:44;;;;;;;5.10;4.07;;;;;;;9.44;85.18;100523.47;5005179;28;20042;-51
2021/11/07 13:40:17;;;;;;;4.18;3.22;;;;;;;9.50;85.32;100518.78;5003184;28;20057;-52
2021/11/07 13:42:45;;;;;;;4.93;3.20;;;;;;;9.49;85.36;100516.19;5001129;28;20052;-52
2021/11/07 13:45:26;;;;;;;3.53;3.20;;;;;;;9.45;85.09;100511.94;5002251;28;20053;-51